Time;durP1;ratioP1;P1;durP2;ratioP2;P2;SDS_P1;SDS_P2;PMS_P1;PMS_P2;Temp;Humidity;BMP_temperature;BMP_pressure;BME280_temperature;BME280_humidity;BME280_pressure;Samples;Min_cycle;Max_cycle;Signal;HPM_P1;HPM_P2
2024/02/04 00:01:55;;;;;;;9.00;4.53;;;;;;;1.01;86.96;96352.63;4977143;28;20038;-47
2024/02/04 00:04:21;;;;;;;11.20;5.10;;;;;;;1.05;87.14;96354.13;4989238;28;20043;-45
2024/02/04 00:06:47;;;;;;;11.02;4.90;;;;;;;1.06;87.34;96342.97;4996619;28;20041;-43
2024/02/04 00:09:13;;;;;;;9.88;4.72;;;;;;;1.08;86.69;96338.63;4958354;28;20481;-43
2024/02/04 00:11:39;;;;;;;7.70;4.32;;;;;;;1.06;87.15;96332.75;5002250;28;20054;-44
2024/02/04 00:14:05;;;;;;;11.52;4.97;;;;;;;0.96;87.24;96323.06;4971235;28;20109;-45
2024/02/04 00:16:31;;;;;;;9.63;4.47;;;;;;;1.01;87.26;96323.66;4972974;28;20042;-42
2024/02/04 00:18:57;;;;;;;7.43;4.15;;;;;;;0.97;87.11;96320.44;5006327;28;20045;-42
2024/02/04 00:21:23;;;;;;;8.98;4.43;;;;;;;0.98;87.53;96314.44;4989660;28;20417;-43
2024/02/04 00:23:49;;;;;;;14.25;5.57;;;;;;;1.02;87.55;96305.69;4973191;28;20042;-45
2024/02/04 00:26:15;;;;;;;11.27;4.38;;;;;;;1.08;87.62;96313.06;4965283;28;20073;-44
2024/02/04 00:28:43;;;;;;;8.10;3.95;;;;;;;0.99;87.50;96302.47;4979934;28;20050;-42
2024/02/04 00:31:09;;;;;;;7.15;3.90;;;;;;;0.96;87.74;96290.66;4979544;28;20038;-43
2024/02/04 00:33:35;;;;;;;7.97;3.60;;;;;;;0.97;88.13;96299.16;4965650;28;20037;-44
2024/02/04 00:36:02;;;;;;;14.40;5.75;;;;;;;0.73;88.22;96256.00;4977852;28;20691;-44
2024/02/04 00:38:28;;;;;;;8.10;3.85;;;;;;;1.00;88.53;96286.19;4963651;28;20042;-43
2024/02/04 00:40:56;;;;;;;7.28;3.90;;;;;;;1.03;88.59;96288.63;4999685;28;20080;-45
2024/02/04 00:43:22;;;;;;;7.80;3.90;;;;;;;1.03;88.79;96276.66;4970732;28;20046;-48
2024/02/04 00:45:49;;;;;;;9.38;4.85;;;;;;;1.11;88.98;96279.63;4963148;28;20038;-42
2024/02/04 00:48:15;;;;;;;9.63;4.65;;;;;;;0.97;89.28;96241.16;4944791;28;20141;-48
2024/02/04 00:50:41;;;;;;;12.98;6.10;;;;;;;1.13;88.90;96259.09;4988977;28;20620;-46
2024/02/04 00:53:07;;;;;;;10.10;4.53;;;;;;;1.09;88.96;96227.75;4980591;28;20041;-44
2024/02/04 00:55:33;;;;;;;10.10;4.15;;;;;;;1.28;89.15;96250.63;4981452;28;20038;-47
2024/02/04 00:58:01;;;;;;;8.82;4.20;;;;;;;1.33;88.52;96245.28;4999809;28;20089;-44
2024/02/04 01:00:27;;;;;;;6.88;3.55;;;;;;;1.32;88.56;96247.00;4973524;28;20492;-44
2024/02/04 01:02:53;;;;;;;5.88;2.58;;;;;;;1.26;88.95;96255.00;4988075;28;20542;-46
2024/02/04 01:05:19;;;;;;;8.32;3.40;;;;;;;1.18;88.62;96239.22;4954434;28;20045;-45
2024/02/04 01:07:45;;;;;;;7.15;3.45;;;;;;;1.30;88.96;96241.16;4974219;28;20046;-44
2024/02/04 01:10:11;;;;;;;7.85;3.50;;;;;;;1.26;88.92;96237.09;4969764;28;20186;-48
2024/02/04 01:12:37;;;;;;;8.55;3.20;;;;;;;1.19;89.16;96228.94;4986505;28;20046;-43
2024/02/04 01:15:05;;;;;;;7.00;2.83;;;;;;;1.25;89.34;96226.06;4954734;28;20426;-44
2024/02/04 01:17:31;;;;;;;6.07;2.10;;;;;;;0.97;88.96;96166.19;4992195;28;20040;-44
2024/02/04 01:19:57;;;;;;;5.57;2.60;;;;;;;1.23;89.11;96211.69;4989640;28;20049;-43
2024/02/04 01:22:26;;;;;;;8.13;3.25;;;;;;;1.22;89.42;96212.56;4989190;28;20045;-44
2024/02/04 01:24:52;;;;;;;6.88;3.13;;;;;;;1.01;89.46;96173.63;5000181;28;20050;-44
2024/02/04 01:27:18;;;;;;;7.00;3.05;;;;;;;1.13;89.69;96195.16;4982064;28;20068;-44
2024/02/04 01:29:44;;;;;;;4.82;2.70;;;;;;;1.18;90.17;96200.88;4994469;28;20046;-46
2024/02/04 01:32:10;;;;;;;5.97;3.40;;;;;;;0.96;89.95;96161.97;4987184;28;20042;-44
2024/02/04 01:34:36;;;;;;;6.95;2.70;;;;;;;0.96;90.11;96151.75;4970071;28;20076;-44
2024/02/04 01:37:02;;;;;;;1.98;1.17;;;;;;;1.12;90.45;96179.00;4993366;28;20049;-44
2024/02/04 01:39:28;;;;;;;5.70;2.78;;;;;;;1.16;90.90;96195.81;5002581;28;20057;-43
2024/02/04 01:41:54;;;;;;;6.38;2.22;;;;;;;1.08;90.92;96172.41;4976151;28;20045;-44
2024/02/04 01:44:22;;;;;;;6.47;2.80;;;;;;;1.15;91.47;96181.38;4956707;28;20180;-42
2024/02/04 01:46:48;;;;;;;7.68;3.58;;;;;;;0.91;91.98;96131.53;4972450;28;20041;-47
2024/02/04 01:49:15;;;;;;;8.10;3.38;;;;;;;1.23;92.01;96171.56;4971925;28;20046;-44
2024/02/04 01:51:41;;;;;;;4.72;2.47;;;;;;;1.23;92.31;96176.69;4988476;28;20041;-44
2024/02/04 01:54:07;;;;;;;2.33;1.55;;;;;;;1.24;92.79;96168.13;5006936;28;20053;-44
2024/02/04 01:56:33;;;;;;;6.63;2.88;;;;;;;1.04;93.08;96141.97;4973029;28;20049;-46
2024/02/04 01:59:00;;;;;;;5.40;2.63;;;;;;;1.02;93.14;96131.81;4981837;28;20038;-44
2024/02/04 02:01:26;;;;;;;4.28;2.28;;;;;;;1.18;93.25;96167.63;4985356;28;20069;-45
2024/02/04 02:03:52;;;;;;;6.20;2.67;;;;;;;1.13;93.97;96155.06;4985813;28;20080;-44
2024/02/04 02:06:18;;;;;;;7.28;2.88;;;;;;;0.99;94.44;96119.19;4968653;28;20042;-44
2024/02/04 02:08:45;;;;;;;6.72;2.80;;;;;;;1.05;94.77;96126.50;4982997;28;20062;-42
2024/02/04 02:12:12;;;;;;;10.27;3.15;;;;;;;1.25;95.24;96145.94;4953121;28;20041;-43
2024/02/04 02:14:52;;;;;;;4.78;2.22;;;;;;;1.25;95.63;96139.06;4894387;29;20058;-43
2024/02/04 02:17:25;;;;;;;4.15;1.90;;;;;;;1.31;95.32;96142.22;4969158;28;21758;-43
2024/02/04 02:20:34;;;;;;;6.97;3.08;;;;;;;1.24;96.04;96137.41;4972101;28;20046;-43
2024/02/04 02:23:07;;;;;;;4.63;1.92;;;;;;;1.23;96.45;96134.94;4985173;28;20077;-44
2024/02/04 02:25:35;;;;;;;4.50;2.08;;;;;;;1.26;96.76;96129.63;4985451;28;20042;-46
2024/02/04 02:28:02;;;;;;;5.13;2.70;;;;;;;1.31;97.12;96119.19;4990413;28;20128;-45
2024/02/04 02:30:27;;;;;;;3.35;2.03;;;;;;;1.34;97.08;96132.63;4986612;28;20042;-48
2024/02/04 02:32:54;;;;;;;6.15;2.33;;;;;;;1.38;97.08;96133.28;4985928;28;20046;-43
2024/02/04 02:35:20;;;;;;;5.30;2.53;;;;;;;1.39;97.27;96133.19;4985562;28;20156;-45
2024/02/04 02:37:58;;;;;;;5.68;2.55;;;;;;;1.42;97.50;96122.78;5002908;28;20040;-44
2024/02/04 02:40:39;;;;;;;4.55;1.67;;;;;;;1.34;97.27;96089.13;5004607;28;20046;-43
2024/02/04 02:43:05;;;;;;;2.92;1.55;;;;;;;1.51;97.42;96118.91;4988475;28;20823;-44
2024/02/04 02:45:31;;;;;;;5.15;2.15;;;;;;;1.53;97.70;96099.16;5001376;28;20069;-46
2024/02/04 02:47:58;;;;;;;2.92;1.83;;;;;;;1.65;97.57;96111.28;4999694;28;20037;-45
2024/02/04 02:50:24;;;;;;;5.10;2.10;;;;;;;1.20;97.28;96031.03;4978912;28;20508;-45
2024/02/04 02:52:50;;;;;;;2.95;1.27;;;;;;;1.60;97.48;96098.75;4969117;28;20038;-44
2024/02/04 02:55:16;;;;;;;4.75;1.88;;;;;;;1.47;97.38;96064.50;4997535;28;20033;-44
2024/02/04 02:57:42;;;;;;;1.65;1.10;;;;;;;1.70;97.49;96092.19;5005853;28;20042;-44
2024/02/04 03:00:09;;;;;;;1.80;1.20;;;;;;;1.64;97.71;96078.91;5006192;28;20057;-44
2024/02/04 03:02:35;;;;;;;2.70;1.52;;;;;;;1.53;97.77;96053.91;5009765;28;20127;-45
2024/02/04 03:05:00;;;;;;;2.47;1.10;;;;;;;1.73;97.71;96082.69;4972156;28;20425;-44
2024/02/04 03:07:26;;;;;;;3.35;1.65;;;;;;;1.76;97.88;96078.22;4989203;28;20050;-44
2024/02/04 03:09:54;;;;;;;4.65;2.30;;;;;;;1.74;97.89;96079.19;5006637;28;20038;-44
2024/02/04 03:12:20;;;;;;;3.33;1.77;;;;;;;1.76;98.07;96073.09;5007934;28;20056;-45
2024/02/04 03:14:46;;;;;;;4.43;1.60;;;;;;;1.84;98.35;96067.53;5007954;28;20414;-43
2024/02/04 03:17:13;;;;;;;2.63;1.00;;;;;;;1.83;97.91;96078.69;4972263;28;20038;-45
2024/02/04 03:19:39;;;;;;;3.53;1.60;;;;;;;1.72;98.58;96060.56;4966143;28;20107;-43
2024/02/04 03:22:06;;;;;;;2.75;1.58;;;;;;;1.85;98.43;96070.00;4974791;28;20042;-47
2024/02/04 03:24:32;;;;;;;2.83;1.17;;;;;;;1.90;98.53;96067.16;4965107;28;20045;-43
2024/02/04 03:26:57;;;;;;;1.98;1.20;;;;;;;1.70;98.36;96027.38;4997133;28;20049;-44
2024/02/04 03:29:24;;;;;;;1.63;1.17;;;;;;;1.84;100.00;96065.78;5008124;28;20044;-46
2024/02/04 03:31:50;;;;;;;3.08;1.17;;;;;;;1.82;100.00;96065.06;4991124;28;20045;-45
2024/02/04 03:34:16;;;;;;;2.63;1.10;;;;;;;1.61;100.00;96030.47;5007447;28;20541;-42
2024/02/04 03:36:42;;;;;;;4.28;2.20;;;;;;;1.64;100.00;96023.41;5009356;28;20042;-41
2024/02/04 03:39:08;;;;;;;4.55;1.30;;;;;;;1.90;100.00;96057.75;4971914;28;20038;-44
2024/02/04 03:41:34;;;;;;;2.58;1.10;;;;;;;1.91;100.00;96056.84;4988986;28;20042;-44
2024/02/04 03:44:00;;;;;;;1.63;1.00;;;;;;;1.96;100.00;96054.84;4972008;28;20577;-44
2024/02/04 03:46:26;;;;;;;1.92;1.10;;;;;;;2.00;100.00;96045.22;4955780;28;20074;-43
2024/02/04 03:48:52;;;;;;;4.70;1.90;;;;;;;1.80;100.00;96004.59;4971316;28;20046;-43
2024/02/04 03:51:18;;;;;;;5.53;2.20;;;;;;;2.10;100.00;96044.59;4987877;28;20042;-44
2024/02/04 03:53:47;;;;;;;5.32;1.80;;;;;;;2.18;100.00;96044.16;4989795;28;20034;-46
2024/02/04 03:56:13;;;;;;;2.47;1.33;;;;;;;2.06;100.00;96029.50;4990354;28;20951;-45
2024/02/04 03:58:39;;;;;;;1.48;0.70;;;;;;;2.18;100.00;96038.22;4992626;28;20465;-45
2024/02/04 04:01:05;;;;;;;7.35;3.03;;;;;;;2.11;100.00;96027.50;5007235;28;20042;-44
2024/02/04 04:03:31;;;;;;;1.30;0.80;;;;;;;2.30;100.00;96040.88;5007519;28;20046;-43
2024/02/04 04:05:57;;;;;;;1.20;0.70;;;;;;;2.22;100.00;96030.25;4939980;28;20120;-43
2024/02/04 04:08:23;;;;;;;0.82;0.77;;;;;;;2.24;100.00;96036.13;4971565;28;20626;-46
2024/02/04 04:10:49;;;;;;;2.88;1.10;;;;;;;2.27;100.00;96041.03;4990943;28;20046;-45
2024/02/04 04:13:15;;;;;;;1.40;1.00;;;;;;;2.28;100.00;96029.06;4971139;28;20042;-46
2024/02/04 04:15:42;;;;;;;0.77;0.40;;;;;;;2.32;100.00;96041.59;4982241;28;20580;-43
2024/02/04 04:18:10;;;;;;;2.10;1.00;;;;;;;2.31;99.94;96027.13;5006282;28;20065;-44
2024/02/04 04:20:36;;;;;;;1.85;1.17;;;;;;;2.32;100.00;96025.41;4955529;28;20053;-45
2024/02/04 04:23:02;;;;;;;2.85;1.83;;;;;;;2.35;99.61;96026.06;4969910;28;20421;-42
2024/02/04 04:25:28;;;;;;;2.70;1.02;;;;;;;2.23;99.54;96003.72;5000539;28;20052;-44
2024/02/04 04:27:56;;;;;;;3.08;1.48;;;;;;;2.45;99.56;96024.59;4991033;28;20048;-45
2024/02/04 04:30:22;;;;;;;5.90;1.42;;;;;;;2.48;99.54;96023.56;4974756;28;20044;-45
2024/02/04 04:32:48;;;;;;;1.88;1.00;;;;;;;2.50;99.35;96014.88;4977480;28;20042;-43
2024/02/04 04:35:13;;;;;;;1.30;0.80;;;;;;;2.44;99.24;96022.94;4995566;28;20042;-45
2024/02/04 04:37:39;;;;;;;0.60;0.43;;;;;;;2.25;99.07;95986.50;4972190;28;20044;-45
2024/02/04 04:40:06;;;;;;;1.88;0.90;;;;;;;2.47;99.30;96025.28;4979017;28;20049;-43
2024/02/04 04:42:32;;;;;;;2.42;1.30;;;;;;;2.46;98.96;96015.16;4990006;28;20042;-44
2024/02/04 04:44:57;;;;;;;3.60;1.38;;;;;;;2.30;99.05;95984.50;5005510;28;20540;-43
2024/02/04 04:47:23;;;;;;;1.10;0.70;;;;;;;2.49;99.55;96015.78;5008202;28;20053;-44
2024/02/04 04:49:49;;;;;;;1.08;0.70;;;;;;;2.14;98.90;95958.16;4994465;28;20042;-42
2024/02/04 04:52:16;;;;;;;2.08;0.95;;;;;;;2.48;99.25;96011.56;4988585;28;20038;-44
2024/02/04 04:54:42;;;;;;;2.10;1.02;;;;;;;2.25;99.45;95978.81;4989589;28;20480;-43
2024/02/04 04:57:08;;;;;;;2.60;1.08;;;;;;;2.50;99.42;96006.34;5007478;28;20128;-42
2024/02/04 04:59:36;;;;;;;1.42;1.23;;;;;;;2.48;99.21;96014.13;4989622;28;20128;-43
2024/02/04 05:02:02;;;;;;;0.77;0.50;;;;;;;2.45;99.44;96006.63;5005802;28;20156;-47
2024/02/04 05:04:27;;;;;;;1.50;0.90;;;;;;;2.42;99.85;96004.25;4972664;28;20604;-44
2024/02/04 05:06:53;;;;;;;2.10;0.80;;;;;;;2.44;100.00;95999.03;4995682;28;20042;-44
2024/02/04 05:09:19;;;;;;;1.50;1.05;;;;;;;2.49;100.00;96005.53;4946713;28;20589;-48
2024/02/04 05:11:45;;;;;;;1.60;1.00;;;;;;;2.46;100.00;95989.53;5006752;28;20050;-50
2024/02/04 05:14:11;;;;;;;2.42;1.00;;;;;;;2.16;100.00;95956.31;5007560;28;20137;-45
2024/02/04 05:16:37;;;;;;;3.30;1.50;;;;;;;2.40;100.00;95997.59;5004965;28;20057;-45
2024/02/04 05:19:03;;;;;;;1.17;0.57;;;;;;;1.99;100.00;95928.38;4972533;28;20072;-45
2024/02/04 05:21:29;;;;;;;0.93;0.68;;;;;;;2.36;100.00;95989.25;5005905;28;20457;-45
2024/02/04 05:23:55;;;;;;;3.63;0.80;;;;;;;2.32;100.00;95989.53;4991183;28;20038;-44
2024/02/04 05:26:20;;;;;;;2.28;0.60;;;;;;;2.26;100.00;95989.88;4998612;28;20529;-47
2024/02/04 05:28:46;;;;;;;1.73;0.80;;;;;;;2.25;100.00;95980.59;5004900;28;20457;-47
2024/02/04 05:31:12;;;;;;;2.17;1.00;;;;;;;2.27;100.00;95984.69;5006871;28;20042;-47
2024/02/04 05:33:38;;;;;;;0.85;0.68;;;;;;;2.27;100.00;95991.53;5005303;28;20104;-48
2024/02/04 05:36:07;;;;;;;1.25;0.57;;;;;;;2.08;100.00;95964.50;4999060;28;20066;-47
2024/02/04 05:38:33;;;;;;;1.48;0.80;;;;;;;2.21;100.00;95995.28;4969994;28;20042;-43
2024/02/04 05:40:59;;;;;;;2.47;0.70;;;;;;;2.20;100.00;95997.97;5000789;28;20030;-50
2024/02/04 05:43:25;;;;;;;1.50;0.70;;;;;;;2.20;100.00;96000.53;4989279;28;20060;-46
2024/02/04 05:45:51;;;;;;;2.30;1.10;;;;;;;2.21;100.00;95999.59;4985962;28;20628;-44
2024/02/04 05:48:17;;;;;;;6.55;1.17;;;;;;;2.26;100.00;95995.00;4987525;28;20050;-46
2024/02/04 05:50:43;;;;;;;1.88;0.80;;;;;;;2.28;100.00;96004.25;4987102;28;20167;-47
2024/02/04 05:53:09;;;;;;;3.47;1.38;;;;;;;2.24;100.00;95999.44;4986879;28;20102;-46
2024/02/04 05:55:35;;;;;;;0.85;0.60;;;;;;;2.31;100.00;96008.38;4972314;28;20132;-47
2024/02/04 05:58:01;;;;;;;1.77;0.90;;;;;;;2.35;100.00;96009.84;4994779;28;20038;-46
2024/02/04 06:00:27;;;;;;;3.30;1.63;;;;;;;2.35;100.00;96005.56;4997937;28;20038;-46
2024/02/04 06:02:53;;;;;;;0.88;0.50;;;;;;;2.43;100.00;96011.03;4976749;28;20715;-45
2024/02/04 06:05:19;;;;;;;0.68;0.50;;;;;;;2.35;100.00;96013.25;4995598;28;20046;-44
2024/02/04 06:07:44;;;;;;;8.43;0.60;;;;;;;2.32;100.00;96013.41;4994959;28;20429;-45
2024/02/04 06:10:11;;;;;;;0.95;0.60;;;;;;;2.28;100.00;96016.25;5000151;28;20044;-51
2024/02/04 06:12:37;;;;;;;0.80;0.65;;;;;;;2.24;100.00;96025.03;4999786;28;20050;-44
2024/02/04 06:15:04;;;;;;;1.20;0.63;;;;;;;2.22;100.00;96025.13;5009829;28;20037;-46
2024/02/04 06:17:31;;;;;;;1.73;0.77;;;;;;;2.21;100.00;96018.34;4997022;28;20048;-46
2024/02/04 06:19:59;;;;;;;1.95;0.70;;;;;;;2.25;100.00;96021.56;4995937;28;20128;-43
2024/02/04 06:22:25;;;;;;;1.67;0.73;;;;;;;2.23;100.00;96034.47;4997867;28;20140;-46
2024/02/04 06:24:51;;;;;;;1.58;0.90;;;;;;;2.32;100.00;96039.03;4994927;28;20049;-46
2024/02/04 06:27:17;;;;;;;1.48;0.60;;;;;;;2.37;100.00;96054.13;4992821;28;20057;-43
2024/02/04 06:29:43;;;;;;;3.00;0.50;;;;;;;2.27;100.00;96041.03;4942847;28;20038;-45
2024/02/04 06:32:09;;;;;;;2.15;0.80;;;;;;;2.12;100.00;96021.47;4978008;28;20084;-46
2024/02/04 06:34:35;;;;;;;1.00;0.52;;;;;;;2.40;100.00;96069.34;4995992;28;20119;-46
2024/02/04 06:37:00;;;;;;;1.75;0.75;;;;;;;2.42;100.00;96050.38;5004942;28;20042;-46
2024/02/04 06:39:26;;;;;;;2.75;1.48;;;;;;;2.46;100.00;96049.28;5004414;28;20065;-45
2024/02/04 06:41:56;;;;;;;3.65;1.00;;;;;;;2.44;100.00;96056.25;4980085;28;20552;-42
2024/02/04 06:44:22;;;;;;;3.85;1.63;;;;;;;2.57;100.00;96058.88;4986817;28;20065;-43
2024/02/04 06:46:49;;;;;;;6.18;2.10;;;;;;;2.61;100.00;96068.06;4969199;28;20046;-42
2024/02/04 06:49:18;;;;;;;4.43;1.60;;;;;;;2.67;100.00;96067.66;4985889;28;20089;-45
2024/02/04 06:51:45;;;;;;;1.65;1.00;;;;;;;2.72;100.00;96068.19;4957170;28;20053;-44
2024/02/04 06:54:12;;;;;;;1.17;0.82;;;;;;;2.77;100.00;96068.78;5004619;28;20042;-43
2024/02/04 06:56:38;;;;;;;2.58;0.75;;;;;;;2.77;100.00;96076.47;5004059;28;20076;-43
2024/02/04 06:59:05;;;;;;;0.20;0.20;;;;;;;2.66;100.00;96076.28;5005088;28;20519;-44
2024/02/04 07:01:32;;;;;;;2.95;1.13;;;;;;;2.48;100.00;96050.00;4988686;28;20045;-45
2024/02/04 07:03:58;;;;;;;4.75;1.48;;;;;;;2.78;100.00;96095.22;5005743;28;20046;-46
2024/02/04 07:06:24;;;;;;;1.33;0.77;;;;;;;2.63;100.00;96091.84;4971720;28;20038;-44
2024/02/04 07:08:51;;;;;;;3.45;1.25;;;;;;;2.53;100.00;96058.25;4988396;28;20497;-43
2024/02/04 07:11:17;;;;;;;0.40;0.20;;;;;;;2.77;100.00;96104.66;5003125;28;20045;-41
2024/02/04 07:13:45;;;;;;;1.27;0.38;;;;;;;2.62;100.00;96097.88;4952787;28;20042;-47
2024/02/04 07:16:14;;;;;;;1.38;0.60;;;;;;;2.44;100.00;96087.00;4969344;28;20092;-44
2024/02/04 07:18:40;;;;;;;2.22;1.13;;;;;;;2.65;100.00;96107.13;4938030;28;20732;-49
2024/02/04 07:21:06;;;;;;;0.80;0.50;;;;;;;2.66;100.00;96111.34;4988234;28;20050;-45
2024/02/04 07:23:32;;;;;;;1.02;0.50;;;;;;;2.58;100.00;96110.97;4996248;28;20088;-46
2024/02/04 07:25:58;;;;;;;0.60;0.35;;;;;;;2.44;100.00;96122.88;4956101;28;20038;-43
2024/02/04 07:28:25;;;;;;;1.08;0.30;;;;;;;2.20;100.00;96090.19;4989236;28;20052;-42
2024/02/04 07:30:51;;;;;;;1.65;0.55;;;;;;;2.47;100.00;96132.13;4969252;28;20088;-44
2024/02/04 07:33:17;;;;;;;0.93;0.50;;;;;;;2.35;100.00;96123.44;4983753;28;20050;-43
2024/02/04 07:35:43;;;;;;;5.35;2.15;;;;;;;2.47;100.00;96132.13;4986060;28;20053;-43
2024/02/04 07:38:09;;;;;;;0.70;0.30;;;;;;;2.15;100.00;96076.84;4977608;28;20165;-44
2024/02/04 07:40:35;;;;;;;2.28;0.10;;;;;;;2.40;100.00;96141.09;4996114;28;20042;-43
2024/02/04 07:43:01;;;;;;;0.75;0.22;;;;;;;2.21;100.00;96113.16;4998641;28;20116;-42
2024/02/04 07:45:27;;;;;;;3.28;0.50;;;;;;;2.54;100.00;96154.75;4997049;28;20493;-41
2024/02/04 07:47:53;;;;;;;1.20;0.20;;;;;;;2.59;100.00;96159.59;4992124;28;20054;-43
2024/02/04 07:50:18;;;;;;;0.10;0.10;;;;;;;2.51;100.00;96167.72;4994609;28;20159;-44
2024/02/04 07:52:44;;;;;;;0.20;0.20;;;;;;;2.26;100.00;96134.19;4996330;28;20072;-41
2024/02/04 07:55:10;;;;;;;1.60;0.28;;;;;;;2.54;100.00;96161.63;4995614;28;20046;-42
2024/02/04 07:57:36;;;;;;;0.52;0.30;;;;;;;2.22;100.00;96108.84;4993626;28;20528;-42
2024/02/04 08:00:05;;;;;;;0.90;0.40;;;;;;;2.63;100.00;96176.44;4997986;28;20111;-43
2024/02/04 08:02:38;;;;;;;0.90;0.60;;;;;;;2.67;100.00;96187.38;4991588;28;20042;-42
2024/02/04 08:05:05;;;;;;;0.50;0.40;;;;;;;2.83;100.00;96178.66;4989109;28;20030;-42
2024/02/04 08:07:31;;;;;;;0.82;0.43;;;;;;;2.56;100.00;96150.34;4990975;28;20106;-42
2024/02/04 08:09:59;;;;;;;4.82;1.13;;;;;;;2.76;100.00;96195.34;5005616;28;20655;-42
2024/02/04 08:12:25;;;;;;;0.85;0.40;;;;;;;2.47;100.00;96163.69;4990811;28;20787;-43
2024/02/04 08:14:51;;;;;;;3.63;1.80;;;;;;;2.51;100.00;96162.59;4975091;28;20038;-43
2024/02/04 08:17:17;;;;;;;5.47;1.25;;;;;;;2.67;100.00;96180.47;4987748;28;20072;-43
2024/02/04 08:19:43;;;;;;;2.63;1.10;;;;;;;2.72;100.00;96180.22;4998069;28;20042;-42
2024/02/04 08:22:09;;;;;;;1.30;0.60;;;;;;;2.97;100.00;96217.16;5001709;28;20045;-43
2024/02/04 08:24:36;;;;;;;2.03;0.60;;;;;;;2.83;100.00;96182.94;4987523;28;20576;-42
2024/02/04 08:27:03;;;;;;;0.80;0.47;;;;;;;2.79;100.00;96232.78;4987388;28;20122;-43
2024/02/04 08:29:29;;;;;;;1.42;0.57;;;;;;;2.87;100.00;96240.88;5002628;28;20049;-47
2024/02/04 08:31:55;;;;;;;3.00;0.70;;;;;;;2.95;100.00;96236.91;4999593;28;20050;-44
2024/02/04 08:34:23;;;;;;;1.40;0.50;;;;;;;2.85;100.00;96247.81;4959019;28;20110;-43
2024/02/04 08:36:50;;;;;;;1.35;0.63;;;;;;;2.77;100.00;96252.59;4995277;28;20088;-43
2024/02/04 08:39:16;;;;;;;3.33;1.35;;;;;;;2.83;100.00;96259.88;4999023;28;20041;-44
2024/02/04 08:41:42;;;;;;;0.50;0.40;;;;;;;2.83;100.00;96241.94;4971136;28;20132;-44
2024/02/04 08:44:08;;;;;;;2.58;0.45;;;;;;;2.72;100.00;96257.16;4993038;28;20038;-46
2024/02/04 08:46:34;;;;;;;1.42;0.60;;;;;;;2.47;100.00;96217.53;4993612;28;20407;-45
2024/02/04 08:49:00;;;;;;;5.68;0.60;;;;;;;2.65;100.00;96251.53;4999879;28;20356;-45
2024/02/04 08:51:28;;;;;;;4.45;1.58;;;;;;;2.78;100.00;96260.16;5002440;28;20149;-43
2024/02/04 08:53:54;;;;;;;0.95;0.52;;;;;;;2.74;100.00;96268.94;4980954;28;20589;-46
2024/02/04 08:56:19;;;;;;;6.05;1.42;;;;;;;2.53;100.00;96265.88;5006306;28;20073;-46
2024/02/04 08:58:46;;;;;;;3.92;1.13;;;;;;;2.66;100.00;96271.16;4973067;28;20124;-46
2024/02/04 09:01:11;;;;;;;7.32;1.33;;;;;;;2.67;100.00;96279.66;4999705;28;20501;-45
2024/02/04 09:03:37;;;;;;;3.97;1.63;;;;;;;2.66;100.00;96276.28;4992961;28;20060;-43
2024/02/04 09:06:04;;;;;;;3.90;1.10;;;;;;;2.77;100.00;96281.63;4997332;28;20055;-44
2024/02/04 09:08:30;;;;;;;3.38;1.33;;;;;;;2.67;100.00;96275.34;4956584;28;20193;-44
2024/02/04 09:10:56;;;;;;;2.35;1.00;;;;;;;2.54;100.00;96279.53;4988744;28;20133;-44
2024/02/04 09:13:22;;;;;;;3.88;0.82;;;;;;;2.34;100.00;96231.16;4972569;28;20053;-43
2024/02/04 09:15:50;;;;;;;4.85;1.17;;;;;;;2.78;100.00;96280.69;5002552;28;20042;-43
2024/02/04 09:18:15;;;;;;;4.55;1.00;;;;;;;2.79;100.00;96281.50;5004156;28;20390;-44
2024/02/04 09:20:41;;;;;;;5.35;1.70;;;;;;;2.70;100.00;96277.75;5002684;28;20088;-44
2024/02/04 09:23:07;;;;;;;4.78;1.27;;;;;;;2.62;100.00;96258.59;5006686;28;20048;-45
2024/02/04 09:25:33;;;;;;;4.93;1.48;;;;;;;2.74;100.00;96299.72;4963277;28;20160;-43
2024/02/04 09:27:59;;;;;;;6.82;1.20;;;;;;;2.67;100.00;96297.63;4978404;28;20128;-50
2024/02/04 09:30:25;;;;;;;10.63;1.55;;;;;;;2.61;100.00;96290.28;4997960;28;20046;-46
2024/02/04 09:32:51;;;;;;;4.43;1.27;;;;;;;2.60;100.00;96296.31;4987884;28;20049;-47
2024/02/04 09:35:16;;;;;;;2.83;0.95;;;;;;;2.56;100.00;96290.53;4970226;28;20042;-41
2024/02/04 09:37:42;;;;;;;3.72;1.08;;;;;;;2.54;100.00;96305.16;5003705;28;20040;-43
2024/02/04 09:40:09;;;;;;;3.13;1.50;;;;;;;2.48;100.00;96298.66;4983908;28;20075;-40
2024/02/04 09:42:34;;;;;;;4.95;1.05;;;;;;;2.48;100.00;96264.50;4969600;28;20128;-47
2024/02/04 09:45:03;;;;;;;5.65;1.20;;;;;;;2.74;100.00;96306.59;4987310;28;20049;-44
2024/02/04 09:47:32;;;;;;;2.60;0.98;;;;;;;2.59;100.00;96310.03;4970006;28;20050;-47
2024/02/04 09:49:58;;;;;;;13.77;2.38;;;;;;;2.39;100.00;96295.78;4991789;28;20049;-45
2024/02/04 09:52:33;;;;;;;5.38;1.20;;;;;;;2.82;100.00;96315.53;4997400;28;20065;-43
2024/02/04 09:55:00;;;;;;;2.72;1.10;;;;;;;2.67;100.00;96310.44;4964412;28;20125;-44
2024/02/04 09:57:26;;;;;;;2.72;0.95;;;;;;;2.55;100.00;96317.91;4983789;28;20030;-45
2024/02/04 09:59:54;;;;;;;5.93;1.95;;;;;;;2.62;100.00;96313.25;4991265;28;20553;-46
2024/02/04 10:02:21;;;;;;;7.70;1.90;;;;;;;2.72;100.00;96316.94;5006452;28;20466;-43
2024/02/04 10:04:47;;;;;;;3.70;1.27;;;;;;;2.74;100.00;96327.09;5005393;28;20045;-43
2024/02/04 10:07:14;;;;;;;4.05;1.08;;;;;;;2.54;100.00;96300.88;5006725;28;20042;-45
2024/02/04 10:09:40;;;;;;;10.73;1.15;;;;;;;2.68;100.00;96330.84;5003664;28;20038;-44
2024/02/04 10:12:08;;;;;;;7.30;0.70;;;;;;;2.58;100.00;96337.41;4999158;28;20472;-45
2024/02/04 10:14:34;;;;;;;3.88;1.33;;;;;;;2.16;100.00;96297.03;4969846;28;20042;-43
2024/02/04 10:17:00;;;;;;;10.88;1.60;;;;;;;2.49;100.00;96320.81;4969349;28;20042;-44
2024/02/04 10:19:28;;;;;;;5.78;1.23;;;;;;;2.60;100.00;96322.78;4992217;28;20540;-43
2024/02/04 10:22:03;;;;;;;6.65;1.58;;;;;;;2.42;100.00;96310.97;5004822;28;20118;-46
2024/02/04 10:24:29;;;;;;;10.57;1.52;;;;;;;2.72;100.00;96337.44;4986496;28;20538;-48
2024/02/04 10:26:56;;;;;;;9.43;1.52;;;;;;;2.65;100.00;96331.03;4985485;28;20042;-45
2024/02/04 10:29:26;;;;;;;9.02;1.95;;;;;;;2.83;100.00;96324.84;4977514;28;20045;-49
2024/02/04 10:31:56;;;;;;;4.20;0.95;;;;;;;2.89;100.00;96331.34;5006566;28;20045;-45
2024/02/04 10:34:22;;;;;;;6.82;1.23;;;;;;;3.01;100.00;96340.09;5005143;28;20062;-43
2024/02/04 10:36:48;;;;;;;6.07;1.65;;;;;;;2.90;100.00;96343.28;5006325;28;20038;-45
2024/02/04 10:39:15;;;;;;;5.57;1.08;;;;;;;2.74;100.00;96339.94;4988708;28;20042;-45
2024/02/04 10:41:53;;;;;;;5.43;2.13;;;;;;;2.70;100.00;96349.53;5003771;28;20079;-43
2024/02/04 10:44:22;;;;;;;7.63;1.30;;;;;;;2.78;100.00;96355.06;5005430;28;20073;-44
2024/02/04 10:46:48;;;;;;;;;;;;;;;2.89;100.00;96360.41;4960268;28;20031;-45
2024/02/04 10:49:15;;;;;;;4.03;1.45;;;;;;;2.92;100.00;96364.53;4952996;28;20425;-46
2024/02/04 10:51:42;;;;;;;3.53;1.13;;;;;;;2.84;100.00;96364.97;4989687;28;20057;-47
2024/02/04 10:54:08;;;;;;;7.68;1.20;;;;;;;3.01;100.00;96358.06;5006002;28;20046;-47
2024/02/04 10:56:46;;;;;;;6.05;1.50;;;;;;;3.17;100.00;96359.66;4988989;28;20577;-44
2024/02/04 10:59:17;;;;;;;7.38;1.13;;;;;;;3.20;100.00;96363.75;5004518;28;20046;-47
2024/02/04 11:01:48;;;;;;;3.22;0.80;;;;;;;3.04;100.00;96373.25;5003627;28;20049;-45
2024/02/04 11:04:14;;;;;;;5.63;1.20;;;;;;;2.89;100.00;96374.97;4971929;28;20073;-45
2024/02/04 11:06:44;;;;;;;5.68;1.08;;;;;;;2.98;100.00;96370.13;4985184;28;20049;-45
2024/02/04 11:09:11;;;;;;;6.68;1.50;;;;;;;3.09;100.00;96368.72;4985361;28;20077;-47
2024/02/04 11:11:38;;;;;;;6.47;1.20;;;;;;;3.23;100.00;96372.13;4967411;28;20502;-45
2024/02/04 11:14:09;;;;;;;9.48;1.10;;;;;;;3.36;100.00;96361.94;5005511;28;20088;-45
2024/02/04 11:16:45;;;;;;;3.67;0.77;;;;;;;3.30;100.00;96367.44;5001404;28;20481;-47
2024/02/04 11:20:13;;;;;;;4.90;1.15;;;;;;;3.45;100.00;96371.72;5003578;28;20513;-43
2024/02/04 11:22:51;;;;;;;5.55;0.90;;;;;;;3.70;100.00;96376.19;4917943;29;20401;-45
2024/02/04 11:25:53;;;;;;;4.45;0.90;;;;;;;4.32;100.00;96376.66;5006800;28;20084;-44
2024/02/04 11:28:21;;;;;;;4.15;1.13;;;;;;;5.19;100.00;96362.41;4894636;29;20055;-43
2024/02/04 11:30:47;;;;;;;1.08;0.47;;;;;;;4.93;100.00;96361.56;4987024;28;20103;-43
2024/02/04 11:33:18;;;;;;;4.18;0.75;;;;;;;4.58;100.00;96381.00;4971967;28;20050;-44
2024/02/04 11:35:44;;;;;;;3.10;0.50;;;;;;;4.56;100.00;96375.94;4977399;28;20696;-44
2024/02/04 11:38:11;;;;;;;6.18;0.85;;;;;;;4.68;100.00;96380.31;4998313;28;20042;-45